createdAt,value
2022-12-03T00:00:19.011Z,84.77
2022-12-03T00:01:21.853Z,84.65
2022-12-03T00:02:24.815Z,84.57
2022-12-03T00:04:01.571Z,84.73
2022-12-03T00:05:04.662Z,84.53
2022-12-03T00:06:07.346Z,84.61
2022-12-03T00:07:47.165Z,84.74
2022-12-03T00:08:50.618Z,84.62
2022-12-03T00:09:53.494Z,84.54
2022-12-03T00:11:28.041Z,84.71
2022-12-03T00:12:30.988Z,84.83
2022-12-03T00:13:33.852Z,84.75
2022-12-03T00:15:08.757Z,84.89
2022-12-03T00:16:11.965Z,84.91
2022-12-03T00:17:15.362Z,84.90
2022-12-03T00:18:49.932Z,84.93
2022-12-03T00:19:52.926Z,84.87
2022-12-03T00:20:55.637Z,84.93
2022-12-03T00:22:30.328Z,84.92
2022-12-03T00:23:37.103Z,85.00
2022-12-03T00:24:43.055Z,85.04
2022-12-03T00:26:18.105Z,84.96
2022-12-03T00:27:20.825Z,85.04
2022-12-03T00:28:23.576Z,85.07
2022-12-03T00:29:58.241Z,85.16
2022-12-03T00:31:01.218Z,85.03
2022-12-03T00:32:04.408Z,85.24
2022-12-03T00:33:38.952Z,85.26
2022-12-03T00:34:41.687Z,85.29
2022-12-03T00:35:44.946Z,85.27
2022-12-03T00:37:19.674Z,85.22
2022-12-03T00:38:22.298Z,85.32
2022-12-03T00:39:25.347Z,85.32
2022-12-03T00:40:59.916Z,85.49
2022-12-03T00:42:02.780Z,85.44
2022-12-03T00:43:05.526Z,85.40
2022-12-03T00:44:40.164Z,85.49
2022-12-03T00:45:43.663Z,85.50
2022-12-03T00:46:47.013Z,85.50
2022-12-03T00:48:22.561Z,85.58
2022-12-03T00:49:25.330Z,85.50
2022-12-03T00:50:28.032Z,85.48
2022-12-03T00:52:02.703Z,85.57
2022-12-03T00:53:05.521Z,85.60
2022-12-03T00:54:08.235Z,85.65
2022-12-03T00:55:49.832Z,85.62
2022-12-03T00:56:52.605Z,85.74
2022-12-03T00:57:55.327Z,85.65
2022-12-03T00:59:29.867Z,85.74
2022-12-03T01:00:17.909Z,85.75
2022-12-03T01:01:20.707Z,85.76
2022-12-03T01:02:24.474Z,85.75
2022-12-03T01:03:59.282Z,85.76
2022-12-03T01:05:03.043Z,85.79
2022-12-03T01:06:06.335Z,85.83
2022-12-03T01:07:40.977Z,85.94
2022-12-03T01:08:44.271Z,85.96
2022-12-03T01:09:47.092Z,85.99
2022-12-03T01:11:21.701Z,85.92
2022-12-03T01:12:24.455Z,85.89
2022-12-03T01:13:27.272Z,85.89
2022-12-03T01:15:02.050Z,85.91
2022-12-03T01:16:04.963Z,85.89
2022-12-03T01:17:08.403Z,85.93
2022-12-03T01:18:42.955Z,86.01
2022-12-03T01:19:53.566Z,86.07
2022-12-03T01:20:56.313Z,86.02
2022-12-03T01:22:30.816Z,86.01
2022-12-03T01:23:33.603Z,85.99
2022-12-03T01:24:36.285Z,86.12
2022-12-03T01:26:11.464Z,85.94
2022-12-03T01:27:14.155Z,86.03
2022-12-03T01:28:17.030Z,86.05
2022-12-03T01:29:51.725Z,86.14
2022-12-03T01:30:54.536Z,86.08
2022-12-03T01:31:57.820Z,86.11
2022-12-03T01:33:32.216Z,86.13
2022-12-03T01:34:35.107Z,86.01
2022-12-03T01:35:38.305Z,86.00
2022-12-03T01:37:12.837Z,86.14
2022-12-03T01:38:15.580Z,86.21
2022-12-03T01:39:18.247Z,86.07
2022-12-03T01:40:52.751Z,86.13
2022-12-03T01:42:02.968Z,86.26
2022-12-03T01:43:05.714Z,86.15
2022-12-03T01:44:40.192Z,86.27
2022-12-03T01:45:43.558Z,86.18
2022-12-03T01:46:46.647Z,86.27
2022-12-03T01:48:21.969Z,86.20
2022-12-03T01:49:24.912Z,86.23
2022-12-03T01:50:27.706Z,86.29
2022-12-03T01:52:02.367Z,86.31
2022-12-03T01:53:05.091Z,86.24
2022-12-03T01:54:07.927Z,86.22
2022-12-03T01:55:48.270Z,86.16
2022-12-03T01:56:51.587Z,86.30
2022-12-03T01:57:54.330Z,86.23
2022-12-03T01:59:29.075Z,86.30
2022-12-03T02:00:17.399Z,86.29
2022-12-03T02:01:20.200Z,86.28
2022-12-03T02:02:23.417Z,86.37
2022-12-03T02:03:58.095Z,86.38
2022-12-03T02:05:01.930Z,86.36
2022-12-03T02:06:04.755Z,86.42
2022-12-03T02:07:39.547Z,86.33
2022-12-03T02:08:42.831Z,86.47
2022-12-03T02:09:45.473Z,86.42
2022-12-03T02:11:20.094Z,86.45
2022-12-03T02:12:22.775Z,86.39
2022-12-03T02:13:25.455Z,86.49
2022-12-03T02:15:00.661Z,86.43
2022-12-03T02:16:03.712Z,86.38
2022-12-03T02:17:07.026Z,86.51
2022-12-03T02:18:41.539Z,86.35
2022-12-03T02:19:44.436Z,86.46
2022-12-03T02:20:47.197Z,86.57
2022-12-03T02:22:21.656Z,86.62
2022-12-03T02:23:24.555Z,86.54
2022-12-03T02:24:27.577Z,86.44
2022-12-03T02:26:02.569Z,86.38
2022-12-03T02:27:05.251Z,86.52
2022-12-03T02:28:08.091Z,86.43
2022-12-03T02:29:42.977Z,86.43
2022-12-03T02:30:45.748Z,86.48
2022-12-03T02:31:49.155Z,86.48
2022-12-03T02:33:23.943Z,86.48
2022-12-03T02:34:26.765Z,86.42
2022-12-03T02:35:29.357Z,86.48
2022-12-03T02:37:03.856Z,86.48
2022-12-03T02:38:06.507Z,86.45
2022-12-03T02:39:09.163Z,86.44
2022-12-03T02:40:43.752Z,86.54
2022-12-03T02:41:46.447Z,86.44
2022-12-03T02:42:49.190Z,86.45
2022-12-03T02:44:23.726Z,86.54
2022-12-03T02:45:26.446Z,86.49
2022-12-03T02:46:29.330Z,86.49
2022-12-03T02:48:04.368Z,86.55
2022-12-03T02:49:07.047Z,86.59
2022-12-03T02:50:09.744Z,86.59
2022-12-03T02:51:44.284Z,86.62
2022-12-03T02:52:47.000Z,86.57
2022-12-03T02:53:49.876Z,86.59
2022-12-03T02:55:24.379Z,86.60
2022-12-03T02:56:34.179Z,86.61
2022-12-03T02:57:37.025Z,86.59
2022-12-03T02:59:11.515Z,86.56
2022-12-03T03:00:17.966Z,86.59
2022-12-03T03:01:21.094Z,86.65
2022-12-03T03:02:24.834Z,86.68
2022-12-03T03:03:59.751Z,86.66
2022-12-03T03:05:02.394Z,86.55
2022-12-03T03:06:05.252Z,86.54
2022-12-03T03:07:39.879Z,86.61
2022-12-03T03:08:43.513Z,86.61
2022-12-03T03:09:46.307Z,86.59
2022-12-03T03:11:20.791Z,86.69
2022-12-03T03:12:23.526Z,86.65
2022-12-03T03:13:31.025Z,86.56
2022-12-03T03:15:05.535Z,86.48
2022-12-03T03:16:08.351Z,86.56
2022-12-03T03:17:11.580Z,86.61
2022-12-03T03:18:46.121Z,86.66
2022-12-03T03:19:49.130Z,86.68
2022-12-03T03:20:51.935Z,86.74
2022-12-03T03:22:26.412Z,86.64
2022-12-03T03:23:29.169Z,86.56
2022-12-03T03:24:31.881Z,86.63
2022-12-03T03:26:07.204Z,86.65
2022-12-03T03:27:09.982Z,86.78
2022-12-03T03:28:12.706Z,86.76
2022-12-03T03:29:47.232Z,86.74
2022-12-03T03:30:50.025Z,86.76
2022-12-03T03:31:53.144Z,86.79
2022-12-03T03:33:28.011Z,86.86
2022-12-03T03:34:30.829Z,86.83
2022-12-03T03:35:34.029Z,86.88
2022-12-03T03:37:08.619Z,86.74
2022-12-03T03:38:11.478Z,86.91
2022-12-03T03:39:14.168Z,86.95
2022-12-03T03:40:49.090Z,86.90
2022-12-03T03:41:51.714Z,86.96
2022-12-03T03:42:54.451Z,86.95
2022-12-03T03:44:28.904Z,87.08
2022-12-03T03:45:35.343Z,87.10
2022-12-03T03:46:38.690Z,86.93
2022-12-03T03:48:13.182Z,86.78
2022-12-03T03:49:16.107Z,86.70
2022-12-03T03:50:18.755Z,86.51
2022-12-03T03:51:53.386Z,86.56
2022-12-03T03:52:56.065Z,86.49
2022-12-03T03:53:58.867Z,86.44
2022-12-03T03:55:33.860Z,86.48
2022-12-03T03:56:36.697Z,86.58
2022-12-03T03:57:39.366Z,86.55
2022-12-03T03:59:13.942Z,86.59
2022-12-03T04:00:17.680Z,86.68
2022-12-03T04:01:20.572Z,86.71
2022-12-03T04:02:23.866Z,86.68
2022-12-03T04:03:58.484Z,86.75
2022-12-03T04:05:01.858Z,86.77
2022-12-03T04:06:04.538Z,86.90
2022-12-03T04:07:39.277Z,86.95
2022-12-03T04:08:42.561Z,86.98
2022-12-03T04:09:45.237Z,87.02
2022-12-03T04:11:19.762Z,87.05
2022-12-03T04:12:22.447Z,87.12
2022-12-03T04:13:25.181Z,87.13
2022-12-03T04:15:00.167Z,87.01
2022-12-03T04:16:02.855Z,86.92
2022-12-03T04:17:06.262Z,86.97
2022-12-03T04:18:40.832Z,86.84
2022-12-03T04:19:43.553Z,86.76
2022-12-03T04:20:46.291Z,86.91
2022-12-03T04:22:20.907Z,86.89
2022-12-03T04:23:29.277Z,86.83
2022-12-03T04:24:33.627Z,86.77
2022-12-03T04:26:09.078Z,86.54
2022-12-03T04:27:11.820Z,86.46
2022-12-03T04:28:14.518Z,86.40
2022-12-03T04:29:48.974Z,86.29
2022-12-03T04:30:51.899Z,86.30
2022-12-03T04:31:55.160Z,86.36
2022-12-03T04:33:29.694Z,86.28
2022-12-03T04:34:32.554Z,86.11
2022-12-03T04:35:36.174Z,85.83
2022-12-03T04:37:11.491Z,85.99
2022-12-03T04:38:14.253Z,85.82
2022-12-03T04:39:17.031Z,85.70
2022-12-03T04:40:51.406Z,85.68
2022-12-03T04:41:54.275Z,85.75
2022-12-03T04:42:56.993Z,85.52
2022-12-03T04:44:31.446Z,85.58
2022-12-03T04:45:34.636Z,85.45
2022-12-03T04:46:37.904Z,85.59
2022-12-03T04:48:20.170Z,85.57
2022-12-03T04:49:22.874Z,85.58
2022-12-03T04:50:25.689Z,85.51
2022-12-03T04:52:00.152Z,85.44
2022-12-03T04:53:02.913Z,85.25
2022-12-03T04:54:05.645Z,85.32
2022-12-03T04:55:40.554Z,85.42
2022-12-03T04:56:43.301Z,85.39
2022-12-03T04:57:46.060Z,85.37
2022-12-03T04:59:22.366Z,85.49
2022-12-03T05:00:18.293Z,85.48
2022-12-03T05:01:21.385Z,85.48
2022-12-03T05:02:25.367Z,85.37
2022-12-03T05:04:00.335Z,85.21
2022-12-03T05:05:46.921Z,85.12
2022-12-03T05:06:50.034Z,84.59
2022-12-03T05:07:53.197Z,84.64
2022-12-03T05:09:28.409Z,84.82
2022-12-03T05:10:31.443Z,84.78
2022-12-03T05:11:34.230Z,84.71
2022-12-03T05:13:09.467Z,84.45
2022-12-03T05:14:12.406Z,84.35
2022-12-03T05:15:15.233Z,84.13
2022-12-03T05:16:50.366Z,83.99
2022-12-03T05:17:54.268Z,84.09
2022-12-03T05:18:57.294Z,84.52
2022-12-03T05:20:32.710Z,84.28
2022-12-03T05:21:44.529Z,84.30
2022-12-03T05:22:47.515Z,84.15
2022-12-03T05:24:22.909Z,83.95
2022-12-03T05:25:25.811Z,84.07
2022-12-03T05:26:29.166Z,84.04
2022-12-03T05:28:09.817Z,84.13
2022-12-03T05:29:13.013Z,84.09
2022-12-03T05:30:16.219Z,84.04
2022-12-03T05:31:52.046Z,84.25
2022-12-03T05:32:54.883Z,84.11
2022-12-03T05:33:57.847Z,84.22
2022-12-03T05:35:33.554Z,84.28
2022-12-03T05:36:36.679Z,84.29
2022-12-03T05:37:39.728Z,84.30
2022-12-03T05:39:14.600Z,84.36
2022-12-03T05:40:17.719Z,84.38
2022-12-03T05:41:20.703Z,84.55
2022-12-03T05:42:55.574Z,84.60
2022-12-03T05:43:58.776Z,84.51
2022-12-03T05:45:06.898Z,84.72
2022-12-03T05:46:42.576Z,84.61
2022-12-03T05:47:45.413Z,84.57
2022-12-03T05:48:48.234Z,84.68
2022-12-03T05:50:22.812Z,84.72
2022-12-03T05:51:25.653Z,84.71
2022-12-03T05:52:28.472Z,84.60
2022-12-03T05:54:03.301Z,84.73
2022-12-03T05:55:06.135Z,84.62
2022-12-03T05:56:09.130Z,84.84
2022-12-03T05:57:43.919Z,85.02
2022-12-03T05:58:46.645Z,85.00
2022-12-03T05:59:49.686Z,84.92
2022-12-03T06:00:17.664Z,85.02
2022-12-03T06:01:28.065Z,84.99
2022-12-03T06:02:31.363Z,85.01
2022-12-03T06:04:08.401Z,85.00
2022-12-03T06:05:11.505Z,85.08
2022-12-03T06:06:14.577Z,85.08
2022-12-03T06:07:54.944Z,84.94
2022-12-03T06:08:58.448Z,84.99
2022-12-03T06:10:01.503Z,85.12
2022-12-03T06:11:36.343Z,85.15
2022-12-03T06:12:39.268Z,85.23
2022-12-03T06:13:42.030Z,85.35
2022-12-03T06:15:16.810Z,85.31
2022-12-03T06:16:26.530Z,85.23
2022-12-03T06:17:30.171Z,85.28
2022-12-03T06:19:05.140Z,85.26
2022-12-03T06:20:07.967Z,85.29
2022-12-03T06:21:10.876Z,85.31
2022-12-03T06:22:45.535Z,85.28
2022-12-03T06:23:48.663Z,85.38
2022-12-03T06:24:51.893Z,85.45
2022-12-03T06:26:34.204Z,85.50
2022-12-03T06:27:37.255Z,85.57
2022-12-03T06:28:40.464Z,85.59
2022-12-03T06:30:15.410Z,85.58
2022-12-03T06:31:18.706Z,85.67
2022-12-03T06:32:22.379Z,85.61
2022-12-03T06:33:57.022Z,85.67
2022-12-03T06:35:00.676Z,85.72
2022-12-03T06:36:03.539Z,85.77
2022-12-03T06:37:45.289Z,86.05
2022-12-03T06:38:48.325Z,86.01
2022-12-03T06:39:51.473Z,86.07
2022-12-03T06:41:26.054Z,85.96
2022-12-03T06:42:29.041Z,85.84
2022-12-03T06:43:31.993Z,85.80
2022-12-03T06:45:06.680Z,85.99
2022-12-03T06:46:09.765Z,85.89
2022-12-03T06:47:13.278Z,85.99
2022-12-03T06:48:47.897Z,86.22
2022-12-03T06:49:50.849Z,86.16
2022-12-03T06:50:53.857Z,86.16
2022-12-03T06:52:28.591Z,86.21
2022-12-03T06:53:31.336Z,86.32
2022-12-03T06:54:34.167Z,86.27
2022-12-03T06:56:09.657Z,86.32
2022-12-03T06:57:31.624Z,86.25
2022-12-03T06:58:34.354Z,86.32
2022-12-03T07:00:18.259Z,86.41
2022-12-03T07:01:21.369Z,86.50
2022-12-03T07:02:24.955Z,86.33
2022-12-03T07:04:00.623Z,86.22
2022-12-03T07:05:04.291Z,86.29
2022-12-03T07:06:07.450Z,86.22
2022-12-03T07:07:42.455Z,86.12
2022-12-03T07:08:45.987Z,86.15
2022-12-03T07:09:48.946Z,86.20
2022-12-03T07:11:23.777Z,86.31
2022-12-03T07:12:26.847Z,86.15
2022-12-03T07:13:29.759Z,86.29
2022-12-03T07:15:04.899Z,86.33
2022-12-03T07:16:08.162Z,86.26
2022-12-03T07:17:11.573Z,86.42
2022-12-03T07:18:46.211Z,86.31
2022-12-03T07:19:49.013Z,86.24
2022-12-03T07:20:51.969Z,86.26
2022-12-03T07:22:26.820Z,86.03
2022-12-03T07:23:29.758Z,86.03
2022-12-03T07:24:32.571Z,86.03
2022-12-03T07:26:15.039Z,85.79
2022-12-03T07:27:18.006Z,85.80
2022-12-03T07:28:20.726Z,85.78
2022-12-03T07:29:55.589Z,85.56
2022-12-03T07:30:59.036Z,85.49
2022-12-03T07:32:02.417Z,85.40
2022-12-03T07:33:38.175Z,85.56
2022-12-03T07:34:41.268Z,85.88
2022-12-03T07:35:44.896Z,85.93
2022-12-03T07:37:24.309Z,85.95
2022-12-03T07:38:27.360Z,85.78
2022-12-03T07:39:30.362Z,85.84
2022-12-03T07:41:05.356Z,85.69
2022-12-03T07:42:08.428Z,85.62
2022-12-03T07:43:11.313Z,85.61
2022-12-03T07:44:54.798Z,85.49
2022-12-03T07:45:58.015Z,85.45
2022-12-03T07:47:01.691Z,85.32
2022-12-03T07:48:36.462Z,85.50
2022-12-03T07:49:39.627Z,85.36
2022-12-03T07:50:42.735Z,85.40
2022-12-03T07:52:23.973Z,85.53
2022-12-03T07:53:26.941Z,85.50
2022-12-03T07:54:29.925Z,85.51
2022-12-03T07:56:05.287Z,85.54
2022-12-03T07:57:08.198Z,85.32
2022-12-03T07:58:11.036Z,85.47
2022-12-03T07:59:45.623Z,85.64
2022-12-03T08:00:17.962Z,85.73
2022-12-03T08:01:21.385Z,85.68
2022-12-03T08:02:27.655Z,85.60
2022-12-03T08:04:02.943Z,85.44
2022-12-03T08:05:05.971Z,85.42
2022-12-03T08:06:08.972Z,85.52
2022-12-03T08:07:43.997Z,85.49
2022-12-03T08:08:47.484Z,85.49
2022-12-03T08:09:56.505Z,85.34
2022-12-03T08:11:31.336Z,85.27
2022-12-03T08:12:34.400Z,85.24
2022-12-03T08:13:37.594Z,85.09
2022-12-03T08:15:12.344Z,85.03
2022-12-03T08:16:23.520Z,85.08
2022-12-03T08:17:27.435Z,85.00
2022-12-03T08:19:02.289Z,84.86
2022-12-03T08:20:05.162Z,85.13
2022-12-03T08:21:07.972Z,85.14
2022-12-03T08:22:48.325Z,85.29
2022-12-03T08:23:51.323Z,85.34
2022-12-03T08:24:54.563Z,85.39
2022-12-03T08:26:29.816Z,85.50
2022-12-03T08:27:32.748Z,85.53
2022-12-03T08:28:35.617Z,85.38
2022-12-03T08:30:10.401Z,85.33
2022-12-03T08:31:13.394Z,85.48
2022-12-03T08:32:24.618Z,85.71
2022-12-03T08:33:59.393Z,85.55
2022-12-03T08:35:02.246Z,85.75
2022-12-03T08:36:05.331Z,85.90
2022-12-03T08:37:40.083Z,85.88
2022-12-03T08:38:43.012Z,85.93
2022-12-03T08:39:46.058Z,85.76
2022-12-03T08:41:20.966Z,85.83
2022-12-03T08:42:23.860Z,86.03
2022-12-03T08:43:26.813Z,85.94
2022-12-03T08:45:02.365Z,86.05
2022-12-03T08:46:05.455Z,86.01
2022-12-03T08:47:09.147Z,86.06
2022-12-03T08:48:49.051Z,85.90
2022-12-03T08:49:52.499Z,85.80
2022-12-03T08:50:55.797Z,85.83
2022-12-03T08:52:30.432Z,85.16
2022-12-03T08:53:33.400Z,84.99
2022-12-03T08:54:42.518Z,84.84
2022-12-03T08:56:17.757Z,84.80
2022-12-03T08:57:20.722Z,84.96
2022-12-03T08:58:23.795Z,84.91
2022-12-03T08:59:58.741Z,84.52
2022-12-03T09:00:17.684Z,84.21
2022-12-03T09:01:21.078Z,84.32
2022-12-03T09:02:24.567Z,84.30
2022-12-03T09:03:59.547Z,84.23
2022-12-03T09:05:03.081Z,83.78
2022-12-03T09:06:06.185Z,83.65
2022-12-03T09:07:41.832Z,83.63
2022-12-03T09:08:45.135Z,83.71
2022-12-03T09:09:52.950Z,83.87
2022-12-03T09:11:27.745Z,83.83
2022-12-03T09:12:30.962Z,83.73
2022-12-03T09:13:33.820Z,83.74
2022-12-03T09:15:10.715Z,83.73
2022-12-03T09:16:13.791Z,83.78
2022-12-03T09:17:17.937Z,83.59
2022-12-03T09:18:52.936Z,83.52
2022-12-03T09:19:55.879Z,83.47
2022-12-03T09:20:58.887Z,83.40
2022-12-03T09:22:33.828Z,83.30
2022-12-03T09:23:36.908Z,82.90
2022-12-03T09:24:39.874Z,83.20
2022-12-03T09:26:15.156Z,83.35
2022-12-03T09:27:18.184Z,82.98
2022-12-03T09:28:21.025Z,83.09
2022-12-03T09:30:03.530Z,83.29
2022-12-03T09:31:06.454Z,83.29
2022-12-03T09:32:13.683Z,83.24
2022-12-03T09:33:51.907Z,83.23
2022-12-03T09:34:55.166Z,83.27
2022-12-03T09:35:58.449Z,83.34
2022-12-03T09:37:33.373Z,83.20
2022-12-03T09:38:36.432Z,83.64
2022-12-03T09:39:45.524Z,83.47
2022-12-03T09:41:20.757Z,83.32
2022-12-03T09:42:23.849Z,83.69
2022-12-03T09:43:38.068Z,84.05
2022-12-03T09:45:47.383Z,83.85
2022-12-03T09:46:50.891Z,83.85
2022-12-03T09:47:53.693Z,83.78
2022-12-03T09:49:28.700Z,83.90
2022-12-03T09:50:31.896Z,83.77
2022-12-03T09:51:34.691Z,83.68
2022-12-03T09:53:10.961Z,83.92
2022-12-03T09:54:21.364Z,83.35
2022-12-03T09:55:30.335Z,83.70
2022-12-03T09:57:05.320Z,83.51
2022-12-03T09:58:08.272Z,83.56
2022-12-03T09:59:15.513Z,83.55
2022-12-03T10:00:18.274Z,83.39
2022-12-03T10:01:21.381Z,83.30
2022-12-03T10:02:28.453Z,83.20
2022-12-03T10:04:10.402Z,83.27
2022-12-03T10:05:14.163Z,83.02
2022-12-03T10:06:16.958Z,82.96
2022-12-03T10:07:58.656Z,82.93
2022-12-03T10:09:02.313Z,83.11
2022-12-03T10:10:05.524Z,83.23
2022-12-03T10:11:40.284Z,83.51
2022-12-03T10:12:43.393Z,83.37
2022-12-03T10:13:46.283Z,83.28
2022-12-03T10:15:21.341Z,83.18
2022-12-03T10:16:24.468Z,83.43
2022-12-03T10:17:28.203Z,83.50
2022-12-03T10:19:02.958Z,83.36
2022-12-03T10:20:05.733Z,83.36
2022-12-03T10:21:08.716Z,83.52
2022-12-03T10:22:43.743Z,83.37
2022-12-03T10:23:49.505Z,83.28
2022-12-03T10:24:55.298Z,83.39
2022-12-03T10:26:30.227Z,83.76
2022-12-03T10:27:33.290Z,83.54
2022-12-03T10:28:36.359Z,83.63
2022-12-03T10:30:19.382Z,83.70
2022-12-03T10:31:23.232Z,83.68
2022-12-03T10:32:26.397Z,83.62
2022-12-03T10:34:06.154Z,83.81
2022-12-03T10:35:09.142Z,84.03
2022-12-03T10:36:11.944Z,84.06
2022-12-03T10:37:47.031Z,84.39
2022-12-03T10:38:50.081Z,84.37
2022-12-03T10:40:01.286Z,84.44
2022-12-03T10:41:36.453Z,84.44
2022-12-03T10:42:39.414Z,84.51
2022-12-03T10:43:42.595Z,84.30
2022-12-03T10:45:17.494Z,84.52
2022-12-03T10:46:20.769Z,84.61
2022-12-03T10:47:25.315Z,84.75
2022-12-03T10:49:01.160Z,84.54
2022-12-03T10:50:04.311Z,84.30
2022-12-03T10:51:07.122Z,84.18
2022-12-03T10:52:42.028Z,84.09
2022-12-03T10:53:45.175Z,83.69
2022-12-03T10:54:48.182Z,83.75
2022-12-03T10:56:23.810Z,83.95
2022-12-03T10:57:26.767Z,83.56
2022-12-03T10:58:36.924Z,83.49
2022-12-03T11:00:18.011Z,83.19
2022-12-03T11:01:21.242Z,83.17
2022-12-03T11:02:25.010Z,82.95
2022-12-03T11:04:07.746Z,82.75
2022-12-03T11:05:10.801Z,82.62
2022-12-03T11:06:14.132Z,82.87
2022-12-03T11:07:49.210Z,83.07
2022-12-03T11:09:05.433Z,82.98
2022-12-03T11:10:11.522Z,83.15
2022-12-03T11:11:46.703Z,83.36
2022-12-03T11:12:49.843Z,83.41
2022-12-03T11:13:52.576Z,83.29
2022-12-03T11:15:35.821Z,83.32
2022-12-03T11:16:39.555Z,83.52
2022-12-03T11:17:42.619Z,83.78
2022-12-03T11:19:17.300Z,83.96
2022-12-03T11:20:27.919Z,84.14
2022-12-03T11:21:30.736Z,84.05
2022-12-03T11:23:05.877Z,84.14
2022-12-03T11:24:09.116Z,84.13
2022-12-03T11:25:12.243Z,84.19
2022-12-03T11:26:47.246Z,84.35
2022-12-03T11:27:50.409Z,84.35
2022-12-03T11:28:53.487Z,84.38
2022-12-03T11:30:28.473Z,84.35
2022-12-03T11:31:32.478Z,84.53
2022-12-03T11:32:37.952Z,84.65
2022-12-03T11:34:13.048Z,85.01
2022-12-03T11:35:16.430Z,85.30
2022-12-03T11:36:31.674Z,85.65
2022-12-03T11:38:31.239Z,86.40
2022-12-03T11:39:41.144Z,86.65
2022-12-03T11:40:45.633Z,86.69
2022-12-03T11:42:20.707Z,86.75
2022-12-03T11:43:24.010Z,86.80
2022-12-03T11:44:27.338Z,86.92
2022-12-03T11:46:09.817Z,87.04
2022-12-03T11:47:13.648Z,87.00
2022-12-03T11:48:16.896Z,87.08
2022-12-03T11:49:52.517Z,87.10
2022-12-03T11:50:56.187Z,86.96
2022-12-03T11:51:59.657Z,87.01
2022-12-03T11:53:35.037Z,86.96
2022-12-03T11:54:38.337Z,87.10
2022-12-03T11:55:41.715Z,87.13
2022-12-03T11:57:22.912Z,87.17
2022-12-03T11:58:26.324Z,86.95
2022-12-03T11:59:29.784Z,86.99
2022-12-03T12:00:17.408Z,86.92
2022-12-03T12:01:20.223Z,86.77
2022-12-03T12:02:30.323Z,86.85
2022-12-03T12:04:06.153Z,86.21
2022-12-03T12:05:09.723Z,86.16
2022-12-03T12:06:12.549Z,86.14
2022-12-03T12:07:47.445Z,86.12
2022-12-03T12:08:50.784Z,86.22
2022-12-03T12:09:54.205Z,86.05
2022-12-03T12:11:28.955Z,86.18
2022-12-03T12:12:31.861Z,86.10
2022-12-03T12:13:44.946Z,86.05
2022-12-03T12:15:19.449Z,85.86
2022-12-03T12:16:22.771Z,85.93
2022-12-03T12:17:26.359Z,86.02
2022-12-03T12:19:01.982Z,85.53
2022-12-03T12:20:05.724Z,85.56
2022-12-03T12:21:08.343Z,84.85
2022-12-03T12:22:43.095Z,84.93
2022-12-03T12:23:45.801Z,84.47
2022-12-03T12:24:48.561Z,84.48
2022-12-03T12:26:23.107Z,84.55
2022-12-03T12:27:25.984Z,84.42
2022-12-03T12:28:28.772Z,84.51
2022-12-03T12:30:03.828Z,84.41
2022-12-03T12:31:06.892Z,84.30
2022-12-03T12:32:10.231Z,84.40
2022-12-03T12:33:44.978Z,84.47
2022-12-03T12:34:47.852Z,84.01
2022-12-03T12:35:50.649Z,83.92
2022-12-03T12:37:25.228Z,84.00
2022-12-03T12:38:39.857Z,83.92
2022-12-03T12:39:42.781Z,83.85
2022-12-03T12:41:17.803Z,83.55
2022-12-03T12:42:21.061Z,83.71
2022-12-03T12:43:29.766Z,83.71
2022-12-03T12:45:04.398Z,83.70
2022-12-03T12:46:47.265Z,83.64
2022-12-03T12:47:51.277Z,83.86
2022-12-03T12:49:26.001Z,83.13
2022-12-03T12:50:35.014Z,83.02
2022-12-03T12:51:37.823Z,83.21
2022-12-03T12:53:12.586Z,83.48
2022-12-03T12:54:15.438Z,83.11
2022-12-03T12:55:18.112Z,83.10
2022-12-03T12:56:52.599Z,83.07
2022-12-03T12:57:55.461Z,83.26
2022-12-03T12:58:58.206Z,83.29
2022-12-03T13:00:17.944Z,83.01
2022-12-03T13:01:21.088Z,83.14
2022-12-03T13:02:25.012Z,82.92
2022-12-03T13:04:00.254Z,82.98
2022-12-03T13:05:03.047Z,82.93
2022-12-03T13:06:05.759Z,82.79
2022-12-03T13:07:40.643Z,82.87
2022-12-03T13:08:50.725Z,82.97
2022-12-03T13:09:53.845Z,83.00
2022-12-03T13:11:28.522Z,82.87
2022-12-03T13:12:31.496Z,82.85
2022-12-03T13:13:37.401Z,82.64
2022-12-03T13:15:16.328Z,82.66
2022-12-03T13:16:19.361Z,82.70
2022-12-03T13:17:22.971Z,83.07
2022-12-03T13:18:57.511Z,83.19
2022-12-03T13:20:13.475Z,82.95
2022-12-03T13:21:16.653Z,82.91
2022-12-03T13:22:51.377Z,83.01
2022-12-03T13:23:54.183Z,82.91
2022-12-03T13:24:56.966Z,82.96
2022-12-03T13:27:29.579Z,82.90
2022-12-03T13:28:32.418Z,82.84
2022-12-03T13:29:35.151Z,82.77
2022-12-03T13:31:10.356Z,82.88
2022-12-03T13:32:13.760Z,82.85
2022-12-03T13:33:16.609Z,82.81
2022-12-03T13:34:51.176Z,82.90
2022-12-03T13:35:53.858Z,82.75
2022-12-03T13:37:04.255Z,82.49
2022-12-03T13:38:38.767Z,82.75
2022-12-03T13:39:41.733Z,82.56
2022-12-03T13:40:45.181Z,82.68
2022-12-03T13:42:19.715Z,82.82
2022-12-03T13:43:22.946Z,82.81
2022-12-03T13:44:30.849Z,82.99
2022-12-03T13:46:06.079Z,83.06
2022-12-03T13:47:09.382Z,83.18
2022-12-03T13:48:12.099Z,83.05
2022-12-03T13:49:53.883Z,83.22
2022-12-03T13:50:56.885Z,83.29
2022-12-03T13:51:59.985Z,83.33
2022-12-03T13:53:34.544Z,83.49
2022-12-03T13:54:37.364Z,83.53
2022-12-03T13:55:40.190Z,83.58
2022-12-03T13:57:14.744Z,83.68
2022-12-03T13:58:17.612Z,83.63
2022-12-03T13:59:26.038Z,83.55
2022-12-03T14:00:17.334Z,83.52
2022-12-03T14:01:20.553Z,83.64
2022-12-03T14:02:24.343Z,83.84
2022-12-03T14:03:59.683Z,83.90
2022-12-03T14:05:06.150Z,83.95
2022-12-03T14:06:09.060Z,84.02
2022-12-03T14:07:43.921Z,84.07
2022-12-03T14:08:47.211Z,84.05
2022-12-03T14:09:50.046Z,83.97
2022-12-03T14:11:25.272Z,84.15
2022-12-03T14:12:28.128Z,84.06
2022-12-03T14:13:31.199Z,84.07
2022-12-03T14:15:05.872Z,84.24
2022-12-03T14:16:08.931Z,84.18
2022-12-03T14:17:12.469Z,83.97
2022-12-03T14:18:47.194Z,84.33
2022-12-03T14:19:49.941Z,84.27
2022-12-03T14:20:53.595Z,84.35
2022-12-03T14:22:28.222Z,84.62
2022-12-03T14:23:38.149Z,84.59
2022-12-03T14:24:41.018Z,84.69
2022-12-03T14:26:15.811Z,84.73
2022-12-03T14:27:18.630Z,84.70
2022-12-03T14:28:21.361Z,84.89
2022-12-03T14:30:01.164Z,84.85
2022-12-03T14:31:04.006Z,84.85
2022-12-03T14:32:07.306Z,85.05
2022-12-03T14:33:42.234Z,85.06
2022-12-03T14:34:45.040Z,85.14
2022-12-03T14:35:54.331Z,84.95
2022-12-03T14:37:29.103Z,84.96
2022-12-03T14:38:31.892Z,84.75
2022-12-03T14:39:34.640Z,84.88
2022-12-03T14:41:13.632Z,84.94
2022-12-03T14:42:16.373Z,84.94
2022-12-03T14:43:19.217Z,84.93
2022-12-03T14:44:53.826Z,85.11
2022-12-03T14:45:56.917Z,84.98
2022-12-03T14:47:03.241Z,84.93
2022-12-03T14:48:38.028Z,85.14
2022-12-03T14:49:40.793Z,85.15
2022-12-03T14:50:44.579Z,85.08
2022-12-03T14:52:19.400Z,85.02
2022-12-03T14:53:26.999Z,85.12
2022-12-03T14:54:30.327Z,85.36
2022-12-03T14:56:05.406Z,85.33
2022-12-03T14:57:08.133Z,85.24
2022-12-03T14:58:10.996Z,85.26
2022-12-03T14:59:45.705Z,85.12
2022-12-03T15:00:17.854Z,85.12
2022-12-03T15:01:20.714Z,85.17
2022-12-03T15:02:24.483Z,85.05
2022-12-03T15:03:59.837Z,85.19
2022-12-03T15:05:02.684Z,85.32
2022-12-03T15:06:14.081Z,85.25
2022-12-03T15:07:49.046Z,85.39
2022-12-03T15:08:52.346Z,85.06
2022-12-03T15:09:55.307Z,85.07
2022-12-03T15:11:30.168Z,85.04
2022-12-03T15:12:38.109Z,85.16
2022-12-03T15:13:40.984Z,85.14
2022-12-03T15:15:15.415Z,84.86
2022-12-03T15:16:18.463Z,84.92
2022-12-03T15:17:31.061Z,85.06
2022-12-03T15:19:06.523Z,85.20
2022-12-03T15:20:09.323Z,85.28
2022-12-03T15:21:12.000Z,85.10
2022-12-03T15:22:46.587Z,85.07
2022-12-03T15:23:54.855Z,85.13
2022-12-03T15:24:57.651Z,85.06
2022-12-03T15:26:32.155Z,84.92
2022-12-03T15:27:35.018Z,85.01
2022-12-03T15:28:37.808Z,85.17
2022-12-03T15:30:17.501Z,85.09
2022-12-03T15:31:20.412Z,85.06
2022-12-03T15:32:23.608Z,84.93
2022-12-03T15:33:58.296Z,85.07
2022-12-03T15:35:08.696Z,84.97
2022-12-03T15:36:11.511Z,84.96
2022-12-03T15:37:46.123Z,84.82
2022-12-03T15:38:49.061Z,84.84
2022-12-03T15:39:54.994Z,84.81
2022-12-03T15:41:29.824Z,84.83
2022-12-03T15:42:32.749Z,84.83
2022-12-03T15:43:35.595Z,85.02
2022-12-03T15:45:14.928Z,84.91
2022-12-03T15:46:18.289Z,85.00
2022-12-03T15:47:21.908Z,84.82
2022-12-03T15:48:56.512Z,85.27
2022-12-03T15:49:59.771Z,85.32
2022-12-03T15:51:02.702Z,85.36
2022-12-03T15:52:37.163Z,85.47
2022-12-03T15:53:40.002Z,85.35